Time;durP1;ratioP1;P1;durP2;ratioP2;P2;SDS_P1;SDS_P2;PMS_P1;PMS_P2;Temp;Humidity;BMP_temperature;BMP_pressure;BME280_temperature;BME280_humidity;BME280_pressure;Samples;Min_cycle;Max_cycle;Signal;HPM_P1;HPM_P2
2022/07/16 06:59:39;;;;;;;1.73;0.90;;;18.60;90.00;;;;;;6215443;22;20020;-86
2022/07/16 07:02:10;;;;;;;5.10;1.30;;;18.70;88.70;;;;;;6254180;22;20439;-86
2022/07/16 07:04:47;;;;;;;5.18;1.30;;;18.70;88.60;;;;;;6233780;22;20329;-86
2022/07/16 07:07:13;;;;;;;3.70;1.10;;;18.80;87.40;;;;;;6281894;22;20011;-86
2022/07/16 07:09:42;;;;;;;2.97;1.10;;;18.90;87.00;;;;;;6257259;22;20003;-86
2022/07/16 07:12:19;;;;;;;2.22;1.10;;;18.90;86.60;;;;;;6282681;22;20386;-86
2022/07/16 07:14:49;;;;;;;1.40;0.70;;;19.00;86.00;;;;;;6282483;22;19995;-86
2022/07/16 07:17:15;;;;;;;3.00;0.75;;;19.00;85.30;;;;;;6309475;22;20003;-85
2022/07/16 07:19:47;;;;;;;2.22;0.70;;;19.10;84.00;;;;;;6281546;22;20003;-86
2022/07/16 07:22:16;;;;;;;3.38;0.98;;;19.10;82.00;;;;;;6281852;22;20017;-87
2022/07/16 07:24:42;;;;;;;2.50;1.00;;;19.20;81.90;;;;;;6282268;22;20009;-88
2022/07/16 07:27:13;;;;;;;3.63;1.00;;;19.20;81.80;;;;;;6281488;22;20007;-88
2022/07/16 07:29:47;;;;;;;3.40;0.98;;;19.20;81.80;;;;;;6282283;22;20087;-87
2022/07/16 07:32:16;;;;;;;3.35;0.82;;;19.30;81.30;;;;;;6284740;22;20003;-87
2022/07/16 07:34:47;;;;;;;2.42;0.60;;;19.30;80.70;;;;;;6259433;22;20003;-85
2022/07/16 07:38:03;;;;;;;2.25;0.85;;;19.40;80.30;;;;;;6284554;22;20007;-85
2022/07/16 07:40:32;;;;;;;3.22;0.90;;;19.40;80.20;;;;;;6236590;22;20009;-87
2022/07/16 07:42:59;;;;;;;2.85;1.13;;;19.40;79.00;;;;;;6258964;22;20382;-85
2022/07/16 07:45:28;;;;;;;2.10;0.85;;;19.40;78.30;;;;;;6283246;22;20435;-87
2022/07/16 07:47:54;;;;;;;2.38;0.77;;;19.40;77.40;;;;;;6284359;22;20007;-86
2022/07/16 07:50:22;;;;;;;3.45;1.02;;;19.40;77.30;;;;;;6285077;22;20053;-85
2022/07/16 07:52:53;;;;;;;1.73;0.70;;;19.40;76.90;;;;;;6312790;22;20029;-87
2022/07/16 07:55:20;;;;;;;1.98;0.82;;;19.40;77.50;;;;;;6311720;22;20003;-86
2022/07/16 07:57:53;;;;;;;2.88;1.10;;;19.40;77.20;;;;;;6284818;22;20008;-87
2022/07/16 08:00:22;;;;;;;3.97;1.10;;;19.40;76.60;;;;;;6260057;22;20019;-85
2022/07/16 08:02:48;;;;;;;2.45;0.90;;;19.40;76.60;;;;;;6259811;22;19999;-85
2022/07/16 08:05:14;;;;;;;3.20;1.00;;;19.50;77.00;;;;;;6285006;22;20090;-84
2022/07/16 08:07:42;;;;;;;2.35;1.00;;;19.50;76.80;;;;;;6285626;22;20007;-85
2022/07/16 08:10:09;;;;;;;3.10;1.00;;;19.50;76.70;;;;;;6288892;22;20098;-87
2022/07/16 08:12:39;;;;;;;3.10;1.17;;;19.60;76.30;;;;;;6250840;22;20050;-86
2022/07/16 08:15:12;;;;;;;3.67;1.10;;;19.70;76.10;;;;;;6284408;22;19993;-84
2022/07/16 08:17:43;;;;;;;1.67;1.10;;;19.80;75.40;;;;;;6309775;22;20000;-84
2022/07/16 08:20:10;;;;;;;1.35;0.65;;;19.80;74.60;;;;;;6307033;22;19988;-87
2022/07/16 08:22:36;;;;;;;2.80;1.00;;;19.80;75.00;;;;;;6330268;22;20015;-85
2022/07/16 08:27:51;;;;;;;2.35;0.90;;;19.90;76.00;;;;;;6312980;22;20019;-88
2022/07/16 08:30:17;;;;;;;1.80;0.65;;;19.90;75.70;;;;;;6284909;22;20333;-88
2022/07/16 08:32:46;;;;;;;2.00;0.98;;;19.90;75.80;;;;;;6285244;22;20329;-88
2022/07/16 08:35:11;;;;;;;1.85;0.80;;;19.90;75.80;;;;;;6283715;22;20003;-88
2022/07/16 08:37:40;;;;;;;3.97;1.00;;;19.90;75.50;;;;;;6258782;22;20124;-90
2022/07/16 08:40:11;;;;;;;2.97;1.20;;;19.90;75.50;;;;;;6258792;22;20043;-86
2022/07/16 08:42:38;;;;;;;2.63;0.73;;;20.00;75.20;;;;;;6284740;22;19999;-87
2022/07/16 08:45:06;;;;;;;1.75;0.60;;;20.00;75.20;;;;;;6283890;22;20325;-89
2022/07/16 08:47:33;;;;;;;3.97;1.00;;;20.00;74.20;;;;;;6282450;22;20384;-87
2022/07/16 08:50:02;;;;;;;2.72;0.73;;;20.00;74.60;;;;;;6281896;22;20030;-87
2022/07/16 08:52:32;;;;;;;2.00;0.80;;;20.10;74.20;;;;;;6308495;22;20107;-88
2022/07/16 08:54:58;;;;;;;2.63;0.90;;;20.10;73.70;;;;;;6256309;22;20007;-88
2022/07/16 08:57:24;;;;;;;2.58;0.80;;;20.20;74.30;;;;;;6258293;22;20018;-87
2022/07/16 08:59:51;;;;;;;3.40;0.88;;;20.20;73.60;;;;;;6280449;22;20052;-86
2022/07/16 09:02:18;;;;;;;3.38;0.60;;;20.30;73.80;;;;;;6309570;22;20012;-88
2022/07/16 09:04:45;;;;;;;2.22;0.90;;;20.30;74.30;;;;;;6280692;22;20019;-86
2022/07/16 09:07:15;;;;;;;3.35;1.00;;;20.40;74.40;;;;;;6279697;22;20011;-87
2022/07/16 09:09:41;;;;;;;;;;;20.40;72.60;;;;;;6280529;22;19995;-88
2022/07/16 09:12:11;;;;;;;2.95;0.85;;;20.40;72.60;;;;;;6306523;22;19910;-86
2022/07/16 09:14:39;;;;;;;2.20;0.90;;;20.40;72.90;;;;;;6280385;22;19999;-87
2022/07/16 09:17:09;;;;;;;3.38;0.80;;;20.40;71.40;;;;;;6281568;22;20011;-88
2022/07/16 09:19:35;;;;;;;3.35;1.00;;;20.40;71.60;;;;;;6280021;22;19999;-88
2022/07/16 09:22:10;;;;;;;1.67;0.73;;;20.50;70.50;;;;;;6254607;22;20052;-88
2022/07/16 09:24:45;;;;;;;2.50;0.80;;;20.50;69.90;;;;;;6279948;22;20034;-89
2022/07/16 09:27:16;;;;;;;1.58;0.70;;;20.40;69.90;;;;;;6281357;22;20056;-87
2022/07/16 09:30:02;;;;;;;1.60;0.90;;;20.50;70.00;;;;;;6280476;22;20007;-91
2022/07/16 09:32:47;;;;;;;2.15;0.70;;;20.60;70.10;;;;;;6288150;22;20004;-93
2022/07/16 09:42:40;;;;;;;3.10;0.93;;;20.60;69.20;;;;;;6153237;23;20010;-90
2022/07/16 09:53:02;;;;;;;;;;;;;;;;;;;;;
2022/07/16 09:56:08;;;;;;;2.35;0.60;;;20.80;66.90;;;;;;6189897;22;20066;-88
2022/07/16 09:59:10;;;;;;;;;;;;;;;;;;;;;
2022/07/16 10:05:26;;;;;;;;;;;;;;;;;;;;;
2022/07/16 10:08:48;;;;;;;;;;;;;;;;;;;;;
2022/07/16 10:15:05;;;;;;;;;;;;;;;;;;;;;
2022/07/16 10:17:54;;;;;;;;;;;21.00;65.40;;;;;;6302082;22;20000;-88
2022/07/16 10:20:50;;;;;;;2.25;0.90;;;21.00;65.40;;;;;;6275613;22;19959;-89
2022/07/16 10:23:51;;;;;;;1.80;0.80;;;21.00;65.40;;;;;;6280480;22;20011;-89
2022/07/16 10:26:42;;;;;;;2.65;0.90;;;21.00;63.30;;;;;;6172838;22;20333;-88
2022/07/16 10:30:34;;;;;;;;;;;;;;;;;;;;;
2022/07/16 10:42:28;;;;;;;1.45;0.63;;;21.10;63.30;;;;;;6204406;22;20014;-90
2022/07/16 10:48:52;;;;;;;2.28;0.50;;;21.00;64.40;;;;;;6270512;22;20043;-93
2022/07/16 10:51:46;;;;;;;;;;;;;;;;;;;;;
2022/07/16 10:55:04;;;;;;;;;;;;;;;;;;;;;
2022/07/16 10:58:22;;;;;;;;;;;;;;;;;;;;;
2022/07/16 11:04:17;;;;;;;2.95;1.08;;;21.40;64.50;;;;;;6313895;22;20098;-90
2022/07/16 11:07:21;;;;;;;;;;;;;;;;;;;;;
2022/07/16 11:16:43;;;;;;;3.28;0.82;;;21.50;65.30;;;;;;6235675;22;20007;-92
2022/07/16 11:19:28;;;;;;;;;;;;;;;;;;;;;
2022/07/16 11:22:52;;;;;;;2.97;0.82;;;21.70;64.30;;;;;;6312904;22;19951;-91
2022/07/16 11:29:02;;;;;;;2.63;0.63;;;21.70;63.00;;;;;;6261489;22;20146;-91
2022/07/16 11:32:10;;;;;;;;;;;;;;;;;;;;;
2022/07/16 11:35:14;;;;;;;2.42;0.98;;;21.80;64.80;;;;;;6314587;22;20026;-92
2022/07/16 11:38:38;;;;;;;2.25;0.68;;;21.80;64.10;;;;;;6201525;23;20386;-89
2022/07/16 11:41:45;;;;;;;1.93;0.70;;;21.90;63.30;;;;;;6220948;23;20058;-91
2022/07/16 11:48:27;;;;;;;;;;;;;;;;;;;;;
2022/07/16 12:02:09;;;;;;;;;;;;;;;;;;;;;
2022/07/16 12:08:43;;;;;;;;;;;;;;;;;;;;;
2022/07/16 12:11:42;;;;;;;;;;;;;;;;;;;;;
2022/07/16 12:25:43;;;;;;;1.70;0.80;;;21.90;63.50;;;;;;6182996;23;20013;-90
2022/07/16 12:29:11;;;;;;;;;;;;;;;;;;;;;
2022/07/16 12:32:16;;;;;;;;;;;;;;;;;;;;;
2022/07/16 12:42:34;;;;;;;;;;;;;;;;;;;;;
2022/07/16 13:00:14;;;;;;;;;;;;;;;;;;;;;
2022/07/16 13:10:41;;;;;;;;;;;;;;;;;;;;;
2022/07/16 13:33:04;;;;;;;1.92;0.80;;;22.60;59.10;;;;;;6212677;22;20008;-93
2022/07/16 13:49:58;;;;;;;1.85;0.70;;;22.80;58.90;;;;;;6121761;23;20014;-93
2022/07/16 13:56:44;;;;;;;;;;;;;;;;;;;;;
2022/07/16 14:00:14;;;;;;;;;;;;;;;;;;;;;
2022/07/16 14:14:28;;;;;;;;;;;;;;;;;;;;;
2022/07/16 14:42:16;;;;;;;2.78;0.70;;;22.80;57.10;;;;;;5703161;25;20494;-90
2022/07/16 14:44:42;;;;;;;4.55;1.10;;;22.80;56.90;;;;;;5649351;25;20087;-91
2022/07/16 14:47:11;;;;;;;3.22;0.70;;;22.80;57.30;;;;;;5824516;24;20024;-89
2022/07/16 14:49:38;;;;;;;1.35;0.63;;;22.80;57.30;;;;;;6091687;23;20126;-87
2022/07/16 14:52:05;;;;;;;1.23;0.50;;;22.90;57.70;;;;;;6130210;23;20006;-89
2022/07/16 14:54:33;;;;;;;2.63;0.60;;;22.90;57.90;;;;;;6131005;23;20140;-88
2022/07/16 14:56:59;;;;;;;2.42;0.90;;;23.00;57.20;;;;;;6130484;23;20009;-88
2022/07/16 14:59:28;;;;;;;1.23;0.70;;;22.90;56.30;;;;;;6130903;23;20382;-91
2022/07/16 15:02:04;;;;;;;3.55;0.93;;;22.90;56.70;;;;;;6165380;23;20155;-86
2022/07/16 15:04:34;;;;;;;1.55;0.57;;;22.90;56.70;;;;;;6191371;23;20037;-88
2022/07/16 15:07:00;;;;;;;3.42;0.98;;;22.90;56.70;;;;;;6190995;23;20064;-89
2022/07/16 15:09:30;;;;;;;2.80;0.98;;;22.90;56.10;;;;;;6190327;23;20005;-88
2022/07/16 15:12:06;;;;;;;3.80;0.88;;;22.80;56.40;;;;;;6190909;23;20008;-89
2022/07/16 15:14:34;;;;;;;2.70;0.80;;;22.80;56.80;;;;;;6190393;23;20008;-87
2022/07/16 15:17:25;;;;;;;3.30;0.98;;;22.80;56.70;;;;;;6236687;22;19999;-88
2022/07/16 15:20:11;;;;;;;3.83;0.90;;;22.80;57.60;;;;;;6237775;22;19999;-88
2022/07/16 15:22:46;;;;;;;2.45;0.73;;;22.90;58.50;;;;;;6252085;22;20004;-90
2022/07/16 15:25:16;;;;;;;3.80;0.82;;;22.90;57.40;;;;;;6253088;22;20102;-87
2022/07/16 15:27:45;;;;;;;1.90;0.88;;;22.90;56.90;;;;;;6252719;22;20011;-89
2022/07/16 15:30:35;;;;;;;2.47;0.70;;;22.90;56.40;;;;;;6227267;22;20012;-89
2022/07/16 15:35:52;;;;;;;1.17;0.55;;;23.00;57.30;;;;;;6256928;22;20014;-88
2022/07/16 15:38:26;;;;;;;1.25;0.80;;;23.00;57.10;;;;;;6202818;22;20090;-88
2022/07/16 15:40:54;;;;;;;1.63;0.70;;;23.00;56.90;;;;;;6251424;22;20000;-88
2022/07/16 15:43:23;;;;;;;2.22;0.73;;;23.00;56.30;;;;;;6251614;22;20113;-88
2022/07/16 15:45:51;;;;;;;2.92;1.23;;;23.00;56.60;;;;;;6201524;22;20011;-88
2022/07/16 15:48:20;;;;;;;2.85;1.20;;;23.10;56.80;;;;;;6252241;22;20016;-89
2022/07/16 15:50:48;;;;;;;1.92;0.90;;;23.10;57.20;;;;;;6253220;22;20063;-88
2022/07/16 15:53:15;;;;;;;2.28;0.88;;;23.10;57.20;;;;;;6281041;22;20092;-87
2022/07/16 15:55:41;;;;;;;1.42;0.75;;;23.20;57.50;;;;;;6255059;22;19995;-88
2022/07/16 15:58:10;;;;;;;2.42;0.90;;;23.20;57.80;;;;;;6229822;22;20315;-89
2022/07/16 16:00:44;;;;;;;1.05;0.50;;;23.20;57.60;;;;;;6255894;22;20057;-90
2022/07/16 16:03:10;;;;;;;2.20;1.00;;;23.20;57.50;;;;;;6275950;22;20012;-89
2022/07/16 16:05:46;;;;;;;2.38;1.05;;;23.20;57.80;;;;;;6280366;22;20019;-87
2022/07/16 16:08:15;;;;;;;2.38;1.25;;;23.20;57.10;;;;;;6280389;22;20008;-88
2022/07/16 16:10:46;;;;;;;2.55;0.85;;;23.10;57.10;;;;;;6281320;22;19999;-88
2022/07/16 16:13:14;;;;;;;2.53;1.25;;;23.00;57.20;;;;;;6281141;22;20042;-89
2022/07/16 16:15:40;;;;;;;2.10;1.23;;;23.00;57.40;;;;;;6282298;22;20027;-87
2022/07/16 16:18:13;;;;;;;1.52;1.00;;;23.00;57.70;;;;;;6292602;22;20043;-89
2022/07/16 16:20:41;;;;;;;3.55;1.17;;;23.00;57.70;;;;;;6302769;22;20022;-88
2022/07/16 16:23:10;;;;;;;1.95;1.70;;;23.00;57.90;;;;;;6303729;22;20003;-88
2022/07/16 16:25:37;;;;;;;4.22;1.33;;;23.00;57.30;;;;;;6279370;22;20008;-87
2022/07/16 16:28:08;;;;;;;4.63;1.80;;;23.00;57.10;;;;;;6303462;22;20071;-87
2022/07/16 16:30:34;;;;;;;3.38;1.40;;;22.90;57.20;;;;;;6301568;22;20015;-88
2022/07/16 16:33:01;;;;;;;4.97;1.50;;;22.90;57.00;;;;;;6297025;22;19999;-88
2022/07/16 16:35:27;;;;;;;3.83;1.80;;;22.90;56.80;;;;;;6280649;22;20026;-89
2022/07/16 16:37:57;;;;;;;4.38;1.35;;;22.90;57.10;;;;;;6281464;22;20007;-89
2022/07/16 16:40:26;;;;;;;3.67;1.33;;;22.90;57.60;;;;;;6279156;22;20127;-88
2022/07/16 16:42:54;;;;;;;4.68;1.45;;;22.90;57.60;;;;;;6278735;22;20003;-90
2022/07/16 16:45:24;;;;;;;3.40;1.00;;;22.90;57.70;;;;;;6254429;22;20228;-89
2022/07/16 16:47:50;;;;;;;3.80;2.25;;;22.90;57.60;;;;;;6280053;22;20015;-90
2022/07/16 16:50:16;;;;;;;3.67;1.88;;;22.80;57.40;;;;;;6278675;22;20011;-88
2022/07/16 16:52:45;;;;;;;4.63;1.23;;;22.80;57.80;;;;;;6282134;22;19996;-88
2022/07/16 16:55:12;;;;;;;2.15;1.40;;;22.80;58.20;;;;;;6280072;22;20000;-88
2022/07/16 16:57:42;;;;;;;5.63;1.50;;;22.90;58.60;;;;;;6280730;22;20003;-89
2022/07/16 17:00:10;;;;;;;1.52;0.70;;;22.90;58.80;;;;;;6280321;22;20074;-90
2022/07/16 17:02:36;;;;;;;2.17;1.00;;;22.90;59.10;;;;;;6254164;22;20043;-90
2022/07/16 17:05:05;;;;;;;1.98;0.73;;;22.90;59.20;;;;;;6277065;22;20004;-87
2022/07/16 17:07:31;;;;;;;2.75;1.17;;;22.80;59.40;;;;;;6281014;22;20101;-89
2022/07/16 17:10:06;;;;;;;2.10;0.90;;;22.80;59.60;;;;;;6281728;22;20011;-90
2022/07/16 17:12:32;;;;;;;2.90;1.00;;;22.80;59.90;;;;;;6279838;22;19996;-88
2022/07/16 17:14:57;;;;;;;3.55;1.08;;;22.70;59.30;;;;;;6279131;22;20054;-90
2022/07/16 17:17:23;;;;;;;4.18;1.70;;;22.70;59.30;;;;;;6280479;22;20433;-95
2022/07/16 17:19:49;;;;;;;4.70;1.40;;;22.70;59.40;;;;;;6280460;22;20007;-91
2022/07/16 17:22:15;;;;;;;3.25;1.00;;;22.60;59.40;;;;;;6279789;22;20006;-91
2022/07/16 17:24:41;;;;;;;2.20;0.93;;;22.50;59.60;;;;;;6280842;22;20326;-89
2022/07/16 17:27:07;;;;;;;2.55;1.00;;;22.50;59.80;;;;;;6256140;22;20004;-91
2022/07/16 17:29:33;;;;;;;2.83;1.20;;;22.40;59.60;;;;;;6280777;22;20333;-90
2022/07/16 17:32:01;;;;;;;4.22;1.80;;;22.40;59.60;;;;;;6282373;22;20133;-91
2022/07/16 17:34:27;;;;;;;3.85;1.88;;;22.30;59.50;;;;;;6281456;22;20006;-91
2022/07/16 17:36:53;;;;;;;3.92;1.48;;;22.30;60.00;;;;;;6280938;22;19996;-90
2022/07/16 17:39:19;;;;;;;5.82;1.80;;;22.30;60.30;;;;;;6280449;22;20038;-90
2022/07/16 17:41:47;;;;;;;6.63;3.60;;;22.20;60.30;;;;;;6279403;22;20062;-91
2022/07/16 17:44:13;;;;;;;9.25;6.32;;;22.20;60.60;;;;;;6280189;22;19996;-88
2022/07/16 17:46:39;;;;;;;7.07;4.85;;;22.20;60.70;;;;;;6279955;22;20030;-91
2022/07/16 17:51:50;;;;;;;5.07;1.52;;;22.00;61.30;;;;;;6281457;22;20014;-89
2022/07/16 17:54:16;;;;;;;3.60;1.52;;;22.00;61.40;;;;;;6282178;22;19996;-90
2022/07/16 17:56:42;;;;;;;4.50;1.33;;;22.00;61.40;;;;;;6282541;22;20010;-90
2022/07/16 17:59:07;;;;;;;2.88;0.90;;;21.90;61.40;;;;;;6281705;22;20014;-92
2022/07/16 18:01:36;;;;;;;3.30;1.05;;;21.80;61.60;;;;;;6285528;22;20499;-91
2022/07/16 18:04:05;;;;;;;5.28;1.45;;;21.70;61.80;;;;;;6262168;22;20071;-92
2022/07/16 18:06:31;;;;;;;3.17;1.02;;;21.60;61.90;;;;;;6287000;22;19996;-90
2022/07/16 18:08:59;;;;;;;3.50;1.15;;;21.60;62.30;;;;;;6286869;22;20011;-88
2022/07/16 18:11:30;;;;;;;4.43;1.20;;;21.50;62.60;;;;;;6263396;22;20023;-92
2022/07/16 18:13:55;;;;;;;4.93;1.17;;;21.50;62.80;;;;;;6288591;22;20037;-94
2022/07/16 18:16:21;;;;;;;1.50;0.73;;;21.40;62.90;;;;;;6292314;22;20003;-93
2022/07/16 18:18:53;;;;;;;4.75;1.15;;;21.40;63.10;;;;;;6297662;22;20006;-92
2022/07/16 18:21:23;;;;;;;2.78;1.20;;;21.30;63.20;;;;;;6297734;22;20502;-91
2022/07/16 18:23:48;;;;;;;3.13;1.02;;;21.30;63.40;;;;;;6279398;22;20066;-91
2022/07/16 18:26:14;;;;;;;4.57;1.05;;;21.20;63.30;;;;;;6309804;22;20007;-90
2022/07/16 18:28:40;;;;;;;3.95;1.17;;;21.10;63.40;;;;;;6282812;22;20010;-90
2022/07/16 18:31:06;;;;;;;2.17;1.02;;;21.10;63.50;;;;;;6308292;22;20007;-93
2022/07/16 18:33:32;;;;;;;2.95;0.90;;;21.10;63.70;;;;;;6308739;22;20003;-90
2022/07/16 18:40:41;;;;;;;;;;;;;;;;;;;;;
2022/07/16 20:49:06;;;;;;;;;;;;;;;;;;;;;
2022/07/16 20:59:02;;;;;;;;;;;;;;;;;;;;;
2022/07/16 21:02:24;;;;;;;;;;;;;;;;;;;;;
2022/07/16 21:05:29;;;;;;;4.07;1.42;;;18.50;71.10;;;;;;5898350;24;20014;-91
2022/07/16 21:09:30;;;;;;;;;;;;;;;;;;;;;
2022/07/16 21:19:24;;;;;;;;;;;;;;;;;;;;;
2022/07/16 21:29:33;;;;;;;;;;;;;;;;;;;;;
2022/07/16 21:50:45;;;;;;;4.47;1.13;;;17.90;74.30;;;;;;5925290;24;20071;-90
2022/07/16 21:53:53;;;;;;;3.97;1.05;;;17.90;74.70;;;;;;5937034;24;20350;-90
2022/07/16 22:04:17;;;;;;;;;;;;;;;;;;;;;
2022/07/16 22:30:29;;;;;;;;;;;;;;;;;;;;;
2022/07/16 22:33:45;;;;;;;;;;;;;;;;;;;;;
2022/07/16 22:40:54;;;;;;;;;;;;;;;;;;;;;
2022/07/16 22:47:31;;;;;;;;;;;;;;;;;;;;;
2022/07/16 22:51:06;;;;;;;;;;;;;;;;;;;;;
2022/07/16 22:58:04;;;;;;;;;;;;;;;;;;;;;
2022/07/16 23:01:14;;;;;;;;;;;;;;;;;;;;;
2022/07/16 23:11:46;;;;;;;;;;;;;;;;;;;;;
2022/07/16 23:15:27;;;;;;;;;;;;;;;;;;;;;
2022/07/16 23:32:45;;;;;;;;;;;;;;;;;;;;;
2022/07/16 23:39:37;;;;;;;;;;;;;;;;;;;;;
2022/07/16 23:43:06;;;;;;;4.07;0.98;;;16.70;78.70;;;;;;5870280;24;20094;-90
2022/07/16 23:46:07;;;;;;;;;;;;;;;;;;;;;
2022/07/16 23:49:31;;;;;;;;;;;;;;;;;;;;;
2022/07/16 23:59:34;;;;;;;;;;;;;;;;;;;;;
